createdAt,value
2017-11-30T00:02:00.661Z,26.50
2017-11-30T00:04:29.105Z,25.07
2017-11-30T00:06:57.499Z,23.97
2017-11-30T00:09:25.875Z,24.10
2017-11-30T00:11:54.314Z,24.17
2017-11-30T00:14:22.763Z,21.50
2017-11-30T00:16:51.142Z,21.07
2017-11-30T00:19:19.528Z,22.00
2017-11-30T00:21:47.919Z,20.50
2017-11-30T00:24:17.066Z,19.90
2017-11-30T00:26:45.764Z,21.57
2017-11-30T00:29:14.174Z,21.07
2017-11-30T00:31:42.619Z,20.20
2017-11-30T00:34:10.996Z,20.07
2017-11-30T00:36:39.449Z,22.20
2017-11-30T00:39:07.941Z,20.67
2017-11-30T00:41:36.274Z,21.23
2017-11-30T00:44:16.253Z,20.27
2017-11-30T00:46:44.676Z,19.27
2017-11-30T00:49:13.039Z,20.77
2017-11-30T00:51:41.438Z,17.93
2017-11-30T00:54:09.980Z,21.20
2017-11-30T00:56:38.358Z,19.30
2017-11-30T01:01:39.209Z,19.77
2017-11-30T01:04:08.120Z,22.37
2017-11-30T01:06:36.667Z,20.03
2017-11-30T01:09:05.015Z,21.00
2017-11-30T01:11:33.403Z,21.73
2017-11-30T01:14:01.822Z,22.73
2017-11-30T01:16:30.272Z,22.00
2017-11-30T01:18:58.640Z,25.40
2017-11-30T01:21:28.843Z,23.77
2017-11-30T01:23:57.222Z,24.57
2017-11-30T01:26:25.851Z,27.33
2017-11-30T01:28:54.170Z,28.33
2017-11-30T01:31:22.633Z,27.90
2017-11-30T01:33:50.985Z,30.60
2017-11-30T01:36:19.354Z,29.17
2017-11-30T01:38:47.722Z,30.40
2017-11-30T01:41:16.110Z,30.70
2017-11-30T01:43:44.593Z,32.43
2017-11-30T01:46:12.939Z,34.00
2017-11-30T01:48:41.289Z,33.03
2017-11-30T01:51:09.662Z,28.63
2017-11-30T01:53:37.986Z,33.13
2017-11-30T01:56:06.385Z,33.07
2017-11-30T01:58:34.888Z,35.87
2017-11-30T02:01:03.226Z,36.63
2017-11-30T02:03:31.704Z,34.60
2017-11-30T02:06:00.047Z,32.73
2017-11-30T02:08:28.383Z,31.30
2017-11-30T02:10:56.729Z,32.27
2017-11-30T02:13:25.071Z,36.50
2017-11-30T02:15:53.410Z,33.87
2017-11-30T02:18:22.028Z,30.17
2017-11-30T02:20:50.337Z,32.50
2017-11-30T02:23:18.726Z,30.60
2017-11-30T02:25:47.091Z,26.43
2017-11-30T02:28:15.490Z,28.30
2017-11-30T02:30:43.867Z,30.13
2017-11-30T02:33:12.186Z,29.97
2017-11-30T02:35:40.513Z,26.27
2017-11-30T02:38:08.872Z,30.87
2017-11-30T02:40:37.187Z,28.10
2017-11-30T02:43:05.531Z,29.27
2017-11-30T02:45:33.932Z,27.17
2017-11-30T02:48:02.250Z,26.07
2017-11-30T02:50:30.643Z,26.80
2017-11-30T02:52:59.063Z,29.20
2017-11-30T02:55:27.532Z,28.60
2017-11-30T02:57:55.860Z,28.33
2017-11-30T03:00:24.215Z,28.00
2017-11-30T03:02:52.671Z,27.50
2017-11-30T03:05:21.013Z,26.07
2017-11-30T03:07:49.491Z,25.23
2017-11-30T03:10:17.836Z,25.70
2017-11-30T03:12:46.194Z,25.17
2017-11-30T03:15:14.524Z,23.77
2017-11-30T03:17:43.016Z,27.37
2017-11-30T03:20:11.449Z,24.53
2017-11-30T03:22:39.867Z,25.87
2017-11-30T03:25:08.230Z,23.87
2017-11-30T03:27:36.566Z,25.27
2017-11-30T03:30:04.905Z,22.60
2017-11-30T03:32:33.326Z,24.90
2017-11-30T03:35:01.689Z,27.30
2017-11-30T03:37:30.010Z,23.83
2017-11-30T03:39:58.376Z,26.00
2017-11-30T03:42:26.869Z,26.73
2017-11-30T03:44:55.199Z,26.97
2017-11-30T03:47:23.571Z,25.57
2017-11-30T03:49:51.887Z,23.50
2017-11-30T03:52:22.773Z,22.73
2017-11-30T03:54:51.215Z,23.70
2017-11-30T03:57:19.573Z,24.03
2017-11-30T03:59:47.938Z,25.17
2017-11-30T04:02:16.288Z,25.07
2017-11-30T04:04:44.642Z,23.47
2017-11-30T04:07:12.973Z,26.90
2017-11-30T04:09:41.325Z,27.63
2017-11-30T04:12:09.698Z,27.30
2017-11-30T04:14:38.108Z,23.60
2017-11-30T04:17:06.430Z,24.87
2017-11-30T04:19:34.762Z,27.00
2017-11-30T04:22:03.093Z,25.10
2017-11-30T04:24:31.443Z,23.83
2017-11-30T04:26:59.799Z,22.53
2017-11-30T04:29:29.107Z,25.43
2017-11-30T04:31:57.517Z,25.83
2017-11-30T04:34:25.953Z,25.20
2017-11-30T04:36:54.378Z,24.37
2017-11-30T04:39:22.776Z,25.20
2017-11-30T04:41:51.131Z,26.00
2017-11-30T04:44:19.485Z,24.10
2017-11-30T04:46:47.846Z,25.07
2017-11-30T04:49:16.320Z,25.67
2017-11-30T04:51:44.751Z,22.80
2017-11-30T04:54:13.085Z,24.57
2017-11-30T04:56:41.554Z,25.70
2017-11-30T04:59:09.900Z,23.77
2017-11-30T05:01:38.399Z,22.10
2017-11-30T05:04:06.845Z,23.70
2017-11-30T05:06:35.255Z,26.60
2017-11-30T05:09:03.740Z,25.67
2017-11-30T05:11:32.207Z,26.80
2017-11-30T05:14:00.575Z,27.00
2017-11-30T05:16:29.373Z,27.47
2017-11-30T05:18:57.798Z,24.43
2017-11-30T05:21:28.537Z,23.63
2017-11-30T05:23:56.924Z,26.20
2017-11-30T05:26:25.527Z,27.63
2017-11-30T05:28:54.113Z,26.90
2017-11-30T05:31:22.588Z,24.90
2017-11-30T05:33:50.952Z,23.47
2017-11-30T05:36:19.307Z,26.00
2017-11-30T05:38:48.465Z,23.07
2017-11-30T05:41:17.204Z,24.00
2017-11-30T05:43:45.587Z,22.07
2017-11-30T05:46:14.470Z,21.27
2017-11-30T05:48:43.101Z,20.60
2017-11-30T05:51:11.559Z,20.63
2017-11-30T05:53:40.047Z,21.90
2017-11-30T05:56:09.120Z,22.47
2017-11-30T05:58:37.536Z,18.77
2017-11-30T06:01:05.918Z,19.00
2017-11-30T06:03:34.342Z,18.63
2017-11-30T06:11:07.819Z,18.60
2017-11-30T06:16:08.809Z,19.07
2017-11-30T06:18:37.272Z,19.80
2017-11-30T06:21:05.672Z,18.50
2017-11-30T06:23:34.069Z,19.93
2017-11-30T06:26:02.560Z,16.57
2017-11-30T06:31:03.488Z,17.53
2017-11-30T06:33:32.116Z,17.10
2017-11-30T06:36:02.181Z,17.03
2017-11-30T06:38:30.715Z,17.43
2017-11-30T06:40:59.697Z,17.60
2017-11-30T06:43:28.156Z,17.50
2017-11-30T06:45:56.819Z,19.07
2017-11-30T06:48:25.335Z,18.07
2017-11-30T06:50:53.799Z,18.07
2017-11-30T06:55:54.907Z,16.60
2017-11-30T06:58:28.559Z,15.23
2017-11-30T07:03:31.336Z,16.17
2017-11-30T07:06:01.482Z,18.00
2017-11-30T07:08:31.787Z,16.53
2017-11-30T07:11:03.805Z,17.10
2017-11-30T07:13:38.195Z,16.43
2017-11-30T07:18:42.731Z,17.07
2017-11-30T07:26:18.052Z,16.07
2017-11-30T07:28:47.034Z,18.67
2017-11-30T07:31:30.256Z,16.30
2017-11-30T07:34:00.603Z,18.23
2017-11-30T07:36:29.055Z,15.53
2017-11-30T07:46:39.649Z,17.10
2017-11-30T07:49:08.413Z,17.53
2017-11-30T07:54:12.795Z,15.73
2017-11-30T08:10:45.485Z,16.30
2017-11-30T20:52:46.937Z,7.20
2017-11-30T21:03:30.579Z,7.53
2017-11-30T21:06:02.676Z,9.90
2017-11-30T21:08:31.127Z,8.20
2017-11-30T21:10:59.900Z,8.93
2017-11-30T21:13:28.684Z,8.30
2017-11-30T21:15:57.082Z,10.10
2017-11-30T21:18:25.692Z,8.70
2017-11-30T21:20:54.253Z,8.57
2017-11-30T21:23:22.921Z,8.07
2017-11-30T21:25:51.546Z,8.03
2017-11-30T21:38:50.821Z,8.40
2017-11-30T21:41:19.392Z,8.67
2017-11-30T21:46:21.371Z,6.77
2017-11-30T21:48:50.774Z,7.07
2017-11-30T21:56:24.485Z,7.30
2017-11-30T21:58:55.124Z,7.40
2017-11-30T22:01:24.109Z,7.37
2017-11-30T22:03:56.700Z,8.60
2017-11-30T22:06:25.050Z,6.70
2017-11-30T22:08:53.507Z,6.53
2017-11-30T22:11:22.011Z,5.77
2017-11-30T22:16:23.490Z,6.30
2017-11-30T22:18:51.990Z,5.73
2017-11-30T22:21:20.657Z,6.13
2017-11-30T22:23:49.193Z,5.57
2017-11-30T22:26:17.639Z,5.60
2017-11-30T22:28:46.105Z,5.97
2017-11-30T22:31:14.779Z,5.47
2017-11-30T22:33:43.330Z,4.90
2017-11-30T22:36:11.779Z,5.87
2017-11-30T22:38:40.228Z,5.73
2017-11-30T22:41:08.655Z,5.93
2017-11-30T22:43:37.030Z,5.90
2017-11-30T22:48:57.638Z,6.07
2017-11-30T22:51:26.350Z,7.47
2017-11-30T22:53:54.832Z,7.17
2017-11-30T22:56:23.340Z,6.77
2017-11-30T22:58:55.723Z,6.53
2017-11-30T23:01:25.361Z,6.77
2017-11-30T23:03:53.753Z,6.90
2017-11-30T23:06:24.773Z,6.40
2017-11-30T23:08:53.131Z,7.13
2017-11-30T23:11:21.589Z,7.30
2017-11-30T23:13:50.011Z,7.30
2017-11-30T23:16:18.410Z,7.60
2017-11-30T23:18:47.481Z,7.70
2017-11-30T23:21:16.122Z,7.20
2017-11-30T23:23:44.632Z,6.27
2017-11-30T23:26:13.134Z,6.00
2017-11-30T23:28:41.527Z,6.60
2017-11-30T23:31:10.357Z,8.40
2017-11-30T23:33:38.783Z,7.20
2017-11-30T23:36:07.108Z,6.50
2017-11-30T23:38:38.433Z,6.33
2017-11-30T23:41:06.803Z,7.20
2017-11-30T23:43:35.152Z,6.53
2017-11-30T23:46:03.556Z,6.00
2017-11-30T23:48:31.873Z,6.70
2017-11-30T23:51:00.255Z,6.33
2017-11-30T23:53:28.615Z,5.97
2017-11-30T23:55:56.988Z,6.67
2017-11-30T23:58:25.366Z,5.50
